Time;durP1;ratioP1;P1;durP2;ratioP2;P2;SDS_P1;SDS_P2;PMS_P1;PMS_P2;Temp;Humidity;BMP_temperature;BMP_pressure;BME280_temperature;BME280_humidity;BME280_pressure;Samples;Min_cycle;Max_cycle;Signal;HPM_P1;HPM_P2
2023/03/07 00:00:14;;;;;;;26.65;8.73;;;4.10;99.90;;;;;;5061548;28;20107;-68
2023/03/07 00:02:39;;;;;;;21.17;9.45;;;4.00;99.90;;;;;;5078961;28;20048;-68
2023/03/07 00:05:05;;;;;;;23.20;9.30;;;3.90;99.90;;;;;;5061904;28;20111;-68
2023/03/07 00:07:32;;;;;;;27.40;9.85;;;4.00;99.90;;;;;;5061208;28;20021;-68
2023/03/07 00:09:58;;;;;;;24.63;9.57;;;3.90;99.90;;;;;;5062327;28;20055;-68
2023/03/07 00:12:24;;;;;;;24.73;9.50;;;3.80;99.90;;;;;;5078760;28;20025;-68
2023/03/07 00:14:49;;;;;;;29.80;10.02;;;3.80;99.90;;;;;;5061220;28;20115;-68
2023/03/07 00:17:15;;;;;;;25.75;9.77;;;3.80;99.90;;;;;;5061527;28;20028;-68
2023/03/07 00:19:42;;;;;;;21.88;9.63;;;3.90;99.90;;;;;;5078653;28;20032;-68
2023/03/07 00:22:08;;;;;;;26.73;9.55;;;3.90;99.90;;;;;;5078630;28;20048;-70
2023/03/07 00:24:34;;;;;;;28.95;10.25;;;3.70;99.90;;;;;;5061356;28;20020;-71
2023/03/07 00:26:59;;;;;;;28.33;10.43;;;3.70;99.90;;;;;;5078932;28;20035;-71
2023/03/07 00:29:25;;;;;;;25.63;9.60;;;3.70;99.90;;;;;;5060797;28;20017;-71
2023/03/07 00:31:50;;;;;;;28.35;10.52;;;3.80;99.90;;;;;;5078659;28;20028;-71
2023/03/07 00:34:16;;;;;;;23.80;10.07;;;3.80;99.90;;;;;;5060703;28;20035;-71
2023/03/07 00:36:41;;;;;;;25.90;10.32;;;3.80;99.90;;;;;;5061725;28;20119;-71
2023/03/07 00:39:07;;;;;;;30.73;10.10;;;3.70;99.90;;;;;;5060569;28;20020;-69
2023/03/07 00:41:32;;;;;;;26.13;10.20;;;3.60;99.90;;;;;;5060956;28;20051;-68
2023/03/07 00:43:58;;;;;;;28.58;10.32;;;3.40;99.90;;;;;;5078184;28;20029;-68
2023/03/07 00:46:25;;;;;;;30.83;11.30;;;3.50;99.90;;;;;;5060385;28;20082;-69
2023/03/07 00:48:51;;;;;;;25.98;9.75;;;3.60;99.90;;;;;;5060564;28;20109;-69
2023/03/07 00:51:18;;;;;;;32.40;9.90;;;3.60;99.90;;;;;;5060520;28;20024;-69
2023/03/07 00:53:44;;;;;;;24.75;10.57;;;3.70;99.90;;;;;;5060484;28;20029;-69
2023/03/07 00:56:18;;;;;;;35.17;10.90;;;3.70;99.90;;;;;;5078148;28;20078;-69
2023/03/07 00:58:45;;;;;;;28.90;9.43;;;3.80;99.90;;;;;;5060465;28;20056;-69
2023/03/07 01:01:13;;;;;;;27.92;10.38;;;3.90;99.90;;;;;;5060705;28;20032;-68
2023/03/07 01:03:39;;;;;;;30.88;11.45;;;3.90;99.90;;;;;;5077973;28;20025;-69
2023/03/07 01:06:08;;;;;;;23.55;9.73;;;3.90;99.90;;;;;;5060495;28;20024;-69
2023/03/07 01:08:34;;;;;;;27.50;10.50;;;4.00;99.90;;;;;;5077772;28;20030;-69
2023/03/07 01:11:02;;;;;;;24.40;9.60;;;4.10;99.90;;;;;;5060927;28;20020;-69
2023/03/07 01:13:28;;;;;;;24.95;9.85;;;4.10;99.90;;;;;;5060287;28;20024;-69
2023/03/07 01:15:54;;;;;;;27.55;11.52;;;3.90;99.90;;;;;;5060830;28;20065;-68
2023/03/07 01:18:19;;;;;;;25.25;10.25;;;4.00;99.90;;;;;;5060562;28;20029;-68
2023/03/07 01:20:45;;;;;;;27.42;10.05;;;3.80;99.90;;;;;;5060304;28;20021;-68
2023/03/07 01:23:10;;;;;;;28.92;9.88;;;3.70;99.90;;;;;;5059894;28;20060;-69
2023/03/07 01:25:38;;;;;;;26.83;9.30;;;3.80;99.90;;;;;;5059764;28;20031;-68
2023/03/07 01:28:04;;;;;;;29.13;11.13;;;3.90;99.90;;;;;;5060148;28;20024;-68
2023/03/07 01:30:29;;;;;;;29.80;10.77;;;3.90;99.90;;;;;;5059710;28;20021;-69
2023/03/07 01:32:59;;;;;;;30.15;10.70;;;4.00;99.90;;;;;;5059933;28;20028;-68
2023/03/07 01:35:26;;;;;;;35.72;12.00;;;4.00;99.90;;;;;;5060026;28;20071;-68
2023/03/07 01:37:52;;;;;;;26.67;10.20;;;4.00;99.90;;;;;;5059616;28;20027;-71
2023/03/07 01:40:19;;;;;;;29.27;11.10;;;3.90;99.90;;;;;;5059960;28;20020;-71
2023/03/07 01:42:45;;;;;;;29.33;11.60;;;3.90;99.90;;;;;;5076509;28;20036;-68
2023/03/07 01:45:10;;;;;;;29.10;10.48;;;3.80;99.90;;;;;;5059473;28;20032;-68
2023/03/07 01:47:36;;;;;;;27.50;10.02;;;3.70;99.90;;;;;;5059473;28;20056;-68
2023/03/07 01:50:08;;;;;;;28.40;10.57;;;3.80;99.90;;;;;;5059703;28;20020;-68
2023/03/07 01:52:44;;;;;;;23.95;9.75;;;3.70;99.90;;;;;;5059551;28;20021;-68
2023/03/07 01:55:17;;;;;;;27.42;10.10;;;3.80;99.90;;;;;;5077100;28;20029;-69
2023/03/07 01:57:46;;;;;;;25.85;9.68;;;3.90;99.90;;;;;;5077322;28;20029;-68
2023/03/07 02:00:24;;;;;;;22.83;8.88;;;4.00;99.90;;;;;;5059284;28;20024;-68
2023/03/07 02:03:10;;;;;;;25.27;9.52;;;4.00;99.90;;;;;;5077019;28;20032;-68
2023/03/07 02:05:50;;;;;;;23.75;9.30;;;4.00;99.90;;;;;;5060054;28;20025;-68
2023/03/07 02:08:19;;;;;;;26.73;9.93;;;4.00;99.90;;;;;;5059972;28;20027;-68
2023/03/07 02:10:44;;;;;;;26.70;10.15;;;4.00;99.90;;;;;;5059832;28;20021;-69
2023/03/07 02:13:10;;;;;;;26.08;10.68;;;3.90;99.90;;;;;;5059772;28;20035;-69
2023/03/07 02:15:36;;;;;;;25.15;8.88;;;4.00;99.90;;;;;;5060017;28;20021;-68
2023/03/07 02:18:03;;;;;;;23.48;9.43;;;4.00;99.90;;;;;;5059157;28;20032;-68
2023/03/07 02:20:44;;;;;;;22.73;8.70;;;4.00;99.90;;;;;;5077082;28;20080;-68
2023/03/07 02:23:39;;;;;;;24.65;9.07;;;3.90;99.90;;;;;;5077070;28;20029;-68
2023/03/07 02:26:29;;;;;;;25.40;9.15;;;3.90;99.90;;;;;;5071813;28;20114;-68
2023/03/07 02:28:55;;;;;;;19.48;8.43;;;3.80;99.90;;;;;;5060205;28;20025;-68
2023/03/07 02:31:22;;;;;;;23.48;9.20;;;3.90;99.90;;;;;;5059558;28;20047;-70
2023/03/07 02:33:48;;;;;;;25.50;9.63;;;3.90;99.90;;;;;;5059262;28;20055;-70
2023/03/07 02:36:19;;;;;;;17.90;8.30;;;4.00;99.90;;;;;;5060021;28;20025;-70
2023/03/07 02:38:47;;;;;;;25.48;9.60;;;4.00;99.90;;;;;;5059146;28;20060;-70
2023/03/07 02:41:15;;;;;;;25.27;8.82;;;3.90;99.90;;;;;;5058959;28;20024;-70
2023/03/07 02:43:41;;;;;;;24.65;9.68;;;4.00;99.90;;;;;;5076563;28;20029;-70
2023/03/07 02:46:07;;;;;;;23.92;9.48;;;4.00;99.90;;;;;;5059401;28;20079;-70
2023/03/07 02:48:33;;;;;;;21.50;8.52;;;4.00;99.90;;;;;;5058907;28;20097;-70
2023/03/07 02:50:58;;;;;;;16.90;7.68;;;3.90;99.90;;;;;;5059762;28;20059;-70
2023/03/07 02:53:24;;;;;;;21.88;8.43;;;3.90;99.90;;;;;;5059980;28;20070;-70
2023/03/07 02:55:49;;;;;;;18.98;8.15;;;3.80;99.90;;;;;;5061378;28;20024;-70
2023/03/07 02:58:15;;;;;;;18.58;7.90;;;3.90;99.90;;;;;;5062601;28;20024;-70
2023/03/07 03:00:40;;;;;;;20.52;8.25;;;3.80;99.90;;;;;;5062656;28;20017;-70
2023/03/07 03:03:06;;;;;;;20.88;8.85;;;3.80;99.90;;;;;;5062658;28;20057;-70
2023/03/07 03:05:32;;;;;;;19.25;8.48;;;3.70;99.90;;;;;;5062758;28;20123;-70
2023/03/07 03:07:57;;;;;;;24.42;9.45;;;3.70;99.90;;;;;;5062373;28;20048;-70
2023/03/07 03:10:23;;;;;;;19.67;8.23;;;3.80;99.90;;;;;;5062497;28;20028;-69
2023/03/07 03:12:48;;;;;;;17.25;7.43;;;3.90;99.90;;;;;;5062313;28;20028;-68
2023/03/07 03:15:14;;;;;;;19.25;7.95;;;3.90;99.90;;;;;;5062504;28;20051;-69
2023/03/07 03:17:40;;;;;;;16.13;7.25;;;3.90;99.90;;;;;;5062204;28;20051;-68
2023/03/07 03:20:11;;;;;;;20.42;7.43;;;3.90;99.90;;;;;;5062273;28;20058;-69
2023/03/07 03:22:38;;;;;;;19.83;8.07;;;4.00;99.90;;;;;;5062268;28;20087;-69
2023/03/07 03:25:09;;;;;;;16.58;6.85;;;4.00;99.90;;;;;;5079712;28;20021;-68
2023/03/07 03:27:35;;;;;;;18.00;7.60;;;4.00;99.90;;;;;;5062689;28;20107;-68
2023/03/07 03:30:00;;;;;;;14.18;5.70;;;4.10;99.90;;;;;;5062021;28;20048;-68
2023/03/07 03:32:26;;;;;;;19.02;8.43;;;4.10;99.90;;;;;;5062382;28;20085;-68
2023/03/07 03:34:51;;;;;;;18.98;7.07;;;4.00;99.90;;;;;;5079855;28;20032;-69
2023/03/07 03:37:17;;;;;;;17.95;7.82;;;4.10;99.90;;;;;;5079406;28;20025;-68
2023/03/07 03:39:42;;;;;;;18.67;6.97;;;4.10;99.90;;;;;;5061914;28;20020;-69
2023/03/07 03:42:08;;;;;;;13.57;6.10;;;4.10;99.90;;;;;;5061973;28;20032;-69
2023/03/07 03:44:33;;;;;;;16.55;7.63;;;4.10;99.90;;;;;;5061681;28;20029;-69
2023/03/07 03:46:59;;;;;;;12.20;5.88;;;4.10;99.90;;;;;;5061574;28;20033;-69
2023/03/07 03:49:25;;;;;;;14.65;6.28;;;4.20;99.90;;;;;;5062073;28;20024;-69
2023/03/07 03:51:50;;;;;;;17.25;7.57;;;4.20;99.90;;;;;;5062269;28;20048;-68
2023/03/07 03:54:16;;;;;;;17.92;6.60;;;4.20;99.90;;;;;;5061940;28;20138;-68
2023/03/07 03:56:41;;;;;;;15.77;6.63;;;4.20;99.90;;;;;;5079358;28;20031;-69
2023/03/07 03:59:07;;;;;;;16.35;6.70;;;4.20;99.90;;;;;;5079107;28;20020;-69
2023/03/07 04:01:33;;;;;;;13.60;6.45;;;4.30;99.90;;;;;;5079066;28;20024;-69
2023/03/07 04:03:59;;;;;;;12.15;5.97;;;4.30;99.90;;;;;;5061734;28;20027;-69
2023/03/07 04:06:27;;;;;;;14.55;6.72;;;4.30;99.90;;;;;;5078494;28;20021;-69
2023/03/07 04:08:53;;;;;;;13.10;6.38;;;4.20;99.90;;;;;;5062065;28;20020;-69
2023/03/07 04:11:19;;;;;;;15.02;6.85;;;4.10;99.90;;;;;;5078916;28;20024;-68
2023/03/07 04:13:45;;;;;;;14.88;7.25;;;4.00;99.90;;;;;;5078852;28;20078;-69
2023/03/07 04:16:11;;;;;;;16.15;6.75;;;4.00;99.90;;;;;;5061240;28;20024;-69
2023/03/07 04:18:37;;;;;;;16.85;7.20;;;4.00;99.90;;;;;;5078854;28;20124;-68
2023/03/07 04:21:04;;;;;;;14.88;6.78;;;4.00;99.90;;;;;;5061043;28;20100;-68
2023/03/07 04:23:31;;;;;;;18.98;6.82;;;4.00;99.90;;;;;;5078652;28;20024;-68
2023/03/07 04:25:59;;;;;;;15.10;6.97;;;4.00;99.90;;;;;;5078938;28;20035;-69
2023/03/07 04:28:27;;;;;;;16.85;7.35;;;4.00;99.90;;;;;;5078505;28;20047;-69
2023/03/07 04:30:52;;;;;;;15.57;6.93;;;3.90;99.90;;;;;;5061172;28;20039;-68
2023/03/07 04:33:19;;;;;;;16.10;6.75;;;4.00;99.90;;;;;;5060844;28;20017;-68
2023/03/07 04:35:44;;;;;;;14.45;6.65;;;3.90;99.90;;;;;;5078416;28;20099;-69
2023/03/07 04:38:11;;;;;;;19.08;7.65;;;4.00;99.90;;;;;;5060901;28;20107;-68
2023/03/07 04:40:37;;;;;;;18.27;7.03;;;4.00;99.90;;;;;;5061051;28;20024;-69
2023/03/07 04:43:04;;;;;;;13.98;6.55;;;4.00;99.90;;;;;;5078425;28;20032;-69
2023/03/07 04:45:31;;;;;;;16.52;7.07;;;4.10;99.90;;;;;;5078473;28;20093;-68
2023/03/07 04:47:56;;;;;;;16.80;6.78;;;4.20;99.90;;;;;;5060895;28;20035;-70
2023/03/07 04:50:22;;;;;;;15.05;6.60;;;4.30;99.90;;;;;;5061301;28;20024;-70
2023/03/07 04:52:49;;;;;;;16.55;7.35;;;4.40;99.90;;;;;;5060523;28;20027;-70
2023/03/07 04:55:14;;;;;;;19.48;7.15;;;4.40;99.90;;;;;;5078041;28;20021;-70
2023/03/07 04:57:40;;;;;;;17.50;7.25;;;4.40;99.90;;;;;;5077869;28;20112;-70
2023/03/07 05:00:08;;;;;;;14.77;7.20;;;4.40;99.90;;;;;;5060337;28;20021;-70
2023/03/07 05:02:34;;;;;;;17.77;8.18;;;4.40;99.90;;;;;;5060636;28;20055;-71
2023/03/07 05:05:00;;;;;;;15.27;7.43;;;4.50;99.90;;;;;;5060246;28;20029;-71
2023/03/07 05:07:25;;;;;;;16.55;7.20;;;4.60;99.90;;;;;;5060138;28;20023;-71
2023/03/07 05:09:51;;;;;;;19.08;7.68;;;4.60;99.90;;;;;;5060186;28;20020;-71
2023/03/07 05:12:17;;;;;;;15.70;7.57;;;4.70;99.90;;;;;;5060946;28;20044;-71
2023/03/07 05:14:43;;;;;;;16.63;7.55;;;4.60;99.90;;;;;;5059978;28;20028;-71
2023/03/07 05:17:09;;;;;;;15.68;7.60;;;4.70;99.90;;;;;;5059551;28;20024;-71
2023/03/07 05:19:34;;;;;;;20.58;8.23;;;4.80;99.90;;;;;;5060710;28;20020;-69
2023/03/07 05:22:00;;;;;;;16.05;8.07;;;4.90;99.90;;;;;;5077855;28;20024;-69
2023/03/07 05:24:25;;;;;;;19.23;8.07;;;4.80;99.90;;;;;;5060838;28;20020;-69
2023/03/07 05:26:51;;;;;;;20.35;8.40;;;4.90;99.90;;;;;;5059670;28;20027;-69
2023/03/07 05:29:17;;;;;;;18.48;8.20;;;4.80;99.90;;;;;;5077659;28;20025;-69
2023/03/07 05:31:42;;;;;;;17.55;7.40;;;4.90;99.90;;;;;;5077355;28;20025;-69
2023/03/07 05:34:09;;;;;;;19.08;8.50;;;4.80;99.90;;;;;;5059772;28;20032;-69
2023/03/07 05:36:35;;;;;;;20.60;9.30;;;4.90;99.90;;;;;;5059709;28;20025;-69
2023/03/07 05:39:00;;;;;;;17.85;9.60;;;4.80;99.90;;;;;;5077177;28;20028;-69
2023/03/07 05:41:26;;;;;;;20.10;8.00;;;4.80;99.90;;;;;;5077546;28;20020;-69
2023/03/07 05:43:53;;;;;;;22.33;8.93;;;4.70;99.90;;;;;;5077226;28;20021;-68
2023/03/07 05:46:19;;;;;;;16.50;8.10;;;4.70;99.90;;;;;;5077067;28;20016;-69
2023/03/07 05:48:45;;;;;;;20.88;8.73;;;4.70;99.90;;;;;;5060786;28;20029;-70
2023/03/07 05:51:10;;;;;;;17.73;9.80;;;4.60;99.90;;;;;;5077139;28;20021;-70
2023/03/07 05:53:36;;;;;;;20.63;8.93;;;4.60;99.90;;;;;;5077073;28;20027;-70
2023/03/07 05:56:01;;;;;;;20.55;8.30;;;4.50;99.90;;;;;;5060312;28;20099;-70
2023/03/07 05:58:27;;;;;;;22.58;9.05;;;4.60;99.90;;;;;;5059320;28;20043;-70
2023/03/07 06:00:52;;;;;;;25.60;9.93;;;4.50;99.90;;;;;;5077245;28;20021;-70
2023/03/07 06:03:18;;;;;;;21.80;9.68;;;4.60;99.90;;;;;;5059373;28;20025;-70
2023/03/07 06:05:43;;;;;;;20.40;9.27;;;4.50;99.90;;;;;;5059363;28;20035;-70
2023/03/07 06:08:09;;;;;;;23.70;9.82;;;4.50;99.90;;;;;;5059338;28;20021;-70
2023/03/07 06:10:36;;;;;;;24.00;10.02;;;4.60;99.90;;;;;;5059255;28;20027;-69
2023/03/07 06:13:01;;;;;;;22.10;9.80;;;4.60;99.90;;;;;;5059551;28;20021;-69
2023/03/07 06:15:27;;;;;;;21.88;9.15;;;4.60;99.90;;;;;;5059673;28;20028;-68
2023/03/07 06:17:53;;;;;;;19.92;8.95;;;4.60;99.90;;;;;;5059197;28;20024;-69
2023/03/07 06:20:19;;;;;;;20.60;9.63;;;4.60;99.90;;;;;;5059640;28;20046;-69
2023/03/07 06:22:46;;;;;;;24.55;10.27;;;4.50;99.90;;;;;;5059464;28;20131;-69
2023/03/07 06:25:14;;;;;;;20.73;8.63;;;4.40;99.90;;;;;;5059023;28;20061;-68
2023/03/07 06:27:39;;;;;;;21.90;9.20;;;4.40;99.90;;;;;;5059714;28;20021;-69
2023/03/07 06:30:08;;;;;;;22.02;9.35;;;4.40;99.90;;;;;;5062421;28;20023;-68
2023/03/07 06:32:33;;;;;;;25.10;10.10;;;4.50;99.90;;;;;;5063364;28;20035;-68
2023/03/07 06:34:59;;;;;;;20.70;8.35;;;4.50;99.90;;;;;;5063169;28;20024;-69
2023/03/07 06:37:24;;;;;;;18.27;7.72;;;4.60;99.90;;;;;;5080531;28;20044;-68
2023/03/07 06:39:51;;;;;;;21.65;9.43;;;4.50;99.90;;;;;;5063122;28;20016;-69
2023/03/07 06:42:17;;;;;;;24.02;9.52;;;4.60;99.90;;;;;;5062884;28;20029;-69
2023/03/07 06:44:42;;;;;;;21.38;8.73;;;4.60;99.90;;;;;;5062973;28;20055;-68
2023/03/07 06:47:08;;;;;;;25.92;9.07;;;4.60;99.90;;;;;;5062708;28;20036;-69
2023/03/07 06:49:33;;;;;;;19.58;8.40;;;4.60;99.90;;;;;;5080601;28;20021;-69
2023/03/07 06:51:59;;;;;;;23.45;9.30;;;4.60;99.90;;;;;;5080427;28;20028;-69
2023/03/07 06:54:24;;;;;;;23.80;9.07;;;4.60;99.90;;;;;;5062882;28;20026;-68
2023/03/07 06:56:50;;;;;;;22.80;8.85;;;4.60;99.90;;;;;;5080173;28;20051;-68
2023/03/07 06:59:16;;;;;;;19.15;8.45;;;4.70;99.90;;;;;;5063558;28;20029;-69
2023/03/07 07:01:42;;;;;;;19.33;8.40;;;4.70;99.90;;;;;;5062587;28;20039;-69
2023/03/07 07:04:09;;;;;;;19.40;8.23;;;4.70;99.90;;;;;;5062527;28;20039;-69
2023/03/07 07:06:35;;;;;;;17.75;7.85;;;4.80;99.90;;;;;;5063060;28;20024;-71
2023/03/07 07:09:00;;;;;;;21.30;8.10;;;4.80;99.90;;;;;;5062865;28;20027;-71
2023/03/07 07:11:26;;;;;;;21.85;8.80;;;4.80;99.90;;;;;;5063388;28;20024;-71
2023/03/07 07:13:52;;;;;;;21.98;9.02;;;4.80;99.90;;;;;;5079880;28;20025;-69
2023/03/07 07:16:17;;;;;;;18.30;8.10;;;4.80;99.90;;;;;;5079847;28;20031;-69
2023/03/07 07:18:43;;;;;;;16.23;7.35;;;4.90;99.90;;;;;;5062285;28;20020;-69
2023/03/07 07:21:09;;;;;;;23.75;8.70;;;4.90;99.90;;;;;;5063174;28;20025;-69
2023/03/07 07:23:35;;;;;;;20.95;8.02;;;4.90;99.90;;;;;;5062428;28;20024;-69
2023/03/07 07:26:01;;;;;;;21.25;8.63;;;4.90;99.90;;;;;;5062375;28;20017;-69
2023/03/07 07:28:27;;;;;;;22.35;8.93;;;4.80;99.90;;;;;;5062222;28;20044;-71
2023/03/07 07:30:53;;;;;;;18.83;8.25;;;4.80;99.90;;;;;;5079714;28;20021;-71
2023/03/07 07:33:19;;;;;;;19.30;8.07;;;4.80;99.90;;;;;;5061886;28;20066;-71
2023/03/07 07:35:45;;;;;;;20.90;8.68;;;4.80;99.90;;;;;;5062031;28;20025;-71
2023/03/07 07:38:11;;;;;;;23.17;8.52;;;4.90;99.90;;;;;;5062719;28;20111;-71
2023/03/07 07:40:37;;;;;;;19.60;8.75;;;5.00;99.90;;;;;;5078581;28;20099;-71
2023/03/07 07:43:03;;;;;;;19.27;7.78;;;4.90;99.90;;;;;;5061963;28;20047;-71
2023/03/07 07:45:32;;;;;;;19.25;8.48;;;4.90;99.90;;;;;;5061694;28;20063;-71
2023/03/07 07:47:58;;;;;;;17.75;8.80;;;5.00;99.90;;;;;;5061674;28;20085;-70
2023/03/07 07:50:24;;;;;;;22.85;8.82;;;5.00;99.90;;;;;;5061593;28;20017;-71
2023/03/07 07:52:52;;;;;;;16.70;7.82;;;5.10;99.90;;;;;;5061800;28;20024;-70
2023/03/07 07:55:17;;;;;;;19.35;8.38;;;5.20;99.90;;;;;;5079277;28;20062;-70
2023/03/07 07:57:43;;;;;;;17.23;8.18;;;5.20;99.90;;;;;;5061662;28;20020;-71
2023/03/07 08:00:10;;;;;;;16.20;7.95;;;5.30;99.90;;;;;;5079486;28;20033;-71
2023/03/07 08:02:37;;;;;;;17.60;7.85;;;5.30;99.90;;;;;;5061663;28;20042;-71
2023/03/07 08:05:06;;;;;;;13.93;6.47;;;5.30;99.90;;;;;;5062536;28;20062;-70
2023/03/07 08:07:32;;;;;;;15.75;6.57;;;5.40;99.90;;;;;;5061495;28;20138;-70
2023/03/07 08:09:57;;;;;;;13.88;7.13;;;5.50;99.90;;;;;;5079032;28;20056;-71
2023/03/07 08:12:23;;;;;;;13.75;7.38;;;5.50;99.90;;;;;;5079184;28;20024;-71
2023/03/07 08:14:48;;;;;;;13.23;6.28;;;5.60;99.90;;;;;;5078863;28;20031;-70
2023/03/07 08:17:14;;;;;;;14.20;6.68;;;5.70;99.90;;;;;;5061781;28;20040;-71
2023/03/07 08:19:39;;;;;;;11.18;6.05;;;5.70;99.90;;;;;;5061518;28;20063;-71
2023/03/07 08:22:05;;;;;;;18.48;7.10;;;5.70;99.90;;;;;;5061448;28;20119;-71
2023/03/07 08:24:34;;;;;;;14.00;6.63;;;5.70;99.90;;;;;;5062311;28;20063;-71
2023/03/07 08:27:00;;;;;;;13.85;6.25;;;5.80;99.90;;;;;;5061264;28;20017;-72
2023/03/07 08:29:26;;;;;;;13.45;6.68;;;5.80;99.90;;;;;;5061823;28;20082;-71
2023/03/07 08:31:53;;;;;;;21.63;6.38;;;5.80;99.90;;;;;;5061387;28;20056;-71
2023/03/07 08:34:19;;;;;;;13.02;6.40;;;5.80;99.90;;;;;;5061398;28;20055;-71
2023/03/07 08:36:45;;;;;;;14.07;6.50;;;5.80;99.90;;;;;;5078296;28;20108;-70
2023/03/07 08:39:11;;;;;;;16.80;7.10;;;5.80;99.90;;;;;;5078364;28;20056;-71
2023/03/07 08:41:37;;;;;;;12.88;6.03;;;5.70;99.90;;;;;;5078544;28;20108;-72
2023/03/07 08:44:02;;;;;;;15.30;5.90;;;5.80;99.90;;;;;;5078770;28;20043;-71
2023/03/07 08:46:28;;;;;;;13.93;6.15;;;5.90;99.90;;;;;;5060667;28;20024;-71
2023/03/07 08:48:54;;;;;;;12.88;5.95;;;5.90;99.90;;;;;;5060800;28;20115;-71
2023/03/07 08:51:19;;;;;;;15.27;6.53;;;5.70;99.90;;;;;;5060693;28;20024;-71
2023/03/07 08:53:45;;;;;;;13.90;7.03;;;5.70;99.90;;;;;;5060769;28;20035;-70
2023/03/07 08:56:16;;;;;;;13.30;6.32;;;5.80;99.90;;;;;;5060399;28;20024;-72
2023/03/07 08:58:42;;;;;;;12.38;5.55;;;5.90;99.90;;;;;;5061154;28;20024;-71
2023/03/07 09:01:09;;;;;;;16.10;6.68;;;6.00;99.90;;;;;;5060453;28;20031;-70
2023/03/07 09:03:35;;;;;;;10.77;5.82;;;6.10;99.90;;;;;;5077782;28;20035;-70
2023/03/07 09:06:01;;;;;;;13.05;5.60;;;6.20;99.90;;;;;;5077927;28;20020;-71
2023/03/07 09:08:27;;;;;;;13.02;5.80;;;6.30;99.90;;;;;;5077635;28;20028;-70
2023/03/07 09:10:52;;;;;;;12.90;5.43;;;6.20;99.90;;;;;;5077792;28;20021;-70
2023/03/07 09:13:18;;;;;;;12.52;6.07;;;6.20;99.90;;;;;;5060131;28;20054;-68
2023/03/07 09:15:44;;;;;;;15.82;5.47;;;6.30;99.90;;;;;;5077639;28;20029;-67
2023/03/07 09:18:10;;;;;;;13.70;6.13;;;6.30;99.90;;;;;;5060272;28;20036;-68
2023/03/07 09:20:39;;;;;;;13.30;5.72;;;6.40;99.90;;;;;;5060886;28;20035;-68
2023/03/07 09:23:06;;;;;;;14.85;6.13;;;6.40;99.90;;;;;;5077853;28;20024;-68
2023/03/07 09:25:31;;;;;;;13.05;5.22;;;6.40;99.90;;;;;;5059837;28;20051;-69
2023/03/07 09:27:57;;;;;;;13.65;5.50;;;6.40;99.90;;;;;;5060238;28;20039;-69
2023/03/07 09:30:24;;;;;;;13.05;6.07;;;6.50;99.90;;;;;;5060274;28;20025;-69
2023/03/07 09:33:01;;;;;;;13.30;5.30;;;6.40;99.90;;;;;;5077567;28;20021;-68
2023/03/07 09:35:27;;;;;;;11.55;5.20;;;6.30;99.90;;;;;;5059764;28;20123;-69
2023/03/07 09:37:52;;;;;;;12.45;5.82;;;6.30;99.90;;;;;;5077228;28;20060;-69
2023/03/07 09:40:24;;;;;;;12.60;5.50;;;6.30;99.90;;;;;;5059963;28;20054;-69
2023/03/07 09:43:08;;;;;;;14.52;5.40;;;6.30;99.90;;;;;;5077851;28;20112;-69
2023/03/07 09:46:02;;;;;;;10.98;5.65;;;6.30;99.90;;;;;;5077848;28;20046;-69
2023/03/07 09:48:59;;;;;;;15.30;6.15;;;6.40;99.90;;;;;;5077657;28;20029;-69
2023/03/07 09:51:33;;;;;;;12.32;5.43;;;6.50;99.90;;;;;;5059605;28;20021;-69
2023/03/07 09:54:05;;;;;;;12.55;5.63;;;6.50;99.90;;;;;;5059555;28;20024;-69
2023/03/07 09:56:31;;;;;;;14.63;5.78;;;6.50;99.90;;;;;;5059670;28;20020;-68
2023/03/07 09:59:08;;;;;;;11.70;5.53;;;6.50;99.90;;;;;;5077236;28;20038;-68
2023/03/07 10:01:36;;;;;;;21.05;7.07;;;6.50;99.90;;;;;;5059579;28;20032;-68
2023/03/07 10:04:04;;;;;;;11.80;5.25;;;6.50;99.90;;;;;;5058838;28;20035;-68
2023/03/07 10:06:38;;;;;;;17.80;6.55;;;6.60;99.90;;;;;;5059650;28;20025;-69
2023/03/07 10:09:10;;;;;;;14.27;5.50;;;6.60;99.90;;;;;;5059474;28;20052;-68
2023/03/07 10:12:20;;;;;;;10.98;4.75;;;6.60;99.90;;;;;;5059389;28;20017;-68
2023/03/07 10:14:51;;;;;;;12.90;5.60;;;6.60;99.90;;;;;;5059548;28;20131;-68
2023/03/07 10:17:50;;;;;;;13.80;5.78;;;6.50;99.90;;;;;;5059045;28;20059;-69
2023/03/07 10:20:44;;;;;;;10.32;4.80;;;6.50;99.90;;;;;;5059109;28;20047;-68
2023/03/07 10:23:37;;;;;;;14.52;5.22;;;6.50;99.90;;;;;;5059207;28;20024;-69
2023/03/07 10:26:22;;;;;;;11.35;5.60;;;6.40;99.90;;;;;;5076896;28;20054;-69
2023/03/07 10:28:48;;;;;;;14.82;5.80;;;6.40;99.90;;;;;;5059612;28;20052;-69
2023/03/07 10:31:29;;;;;;;12.70;6.28;;;6.30;99.90;;;;;;5076799;28;20048;-69
2023/03/07 10:33:54;;;;;;;12.57;5.27;;;6.30;99.90;;;;;;5060287;28;20107;-69
2023/03/07 10:36:27;;;;;;;13.95;5.43;;;6.20;99.90;;;;;;5076607;28;20100;-69
2023/03/07 10:39:23;;;;;;;13.95;6.32;;;6.10;99.90;;;;;;5059558;28;20086;-69
2023/03/07 10:41:49;;;;;;;11.95;5.82;;;6.10;99.90;;;;;;5066522;28;20120;-69
2023/03/07 10:44:18;;;;;;;15.48;6.53;;;6.10;99.90;;;;;;5059774;28;20119;-68
2023/03/07 10:46:45;;;;;;;12.85;5.07;;;6.10;99.90;;;;;;5059030;28;20024;-69
2023/03/07 10:49:24;;;;;;;12.27;5.68;;;6.10;99.90;;;;;;5059422;28;20108;-69
2023/03/07 10:51:58;;;;;;;11.32;4.80;;;6.00;99.90;;;;;;5076692;28;20029;-69
2023/03/07 10:54:29;;;;;;;9.10;5.07;;;5.90;99.90;;;;;;5058938;28;20031;-69
2023/03/07 10:57:05;;;;;;;12.98;5.88;;;6.00;99.90;;;;;;5076386;28;20021;-69
2023/03/07 10:59:31;;;;;;;13.55;5.45;;;6.10;99.90;;;;;;5059452;28;20028;-69
2023/03/07 11:01:58;;;;;;;15.93;6.22;;;6.20;99.90;;;;;;5058714;28;20127;-68
2023/03/07 11:04:27;;;;;;;11.38;5.65;;;6.20;99.90;;;;;;5058995;28;20075;-69
2023/03/07 11:06:57;;;;;;;16.58;5.13;;;6.20;99.90;;;;;;5059915;28;20029;-69
2023/03/07 11:09:29;;;;;;;10.40;4.90;;;6.20;99.90;;;;;;5076338;28;20017;-68
2023/03/07 11:11:56;;;;;;;;;;;6.30;99.90;;;;;;5059552;28;20028;-69
2023/03/07 11:14:22;;;;;;;12.98;6.05;;;6.30;99.90;;;;;;5076305;28;19904;-69
2023/03/07 11:17:01;;;;;;;14.75;5.75;;;6.30;99.90;;;;;;5052134;28;20025;-69
2023/03/07 11:19:44;;;;;;;11.00;5.07;;;6.30;99.90;;;;;;5068021;28;20017;-68
2023/03/07 11:22:23;;;;;;;14.05;5.18;;;6.20;99.90;;;;;;5049332;28;20031;-69
2023/03/07 11:24:56;;;;;;;10.57;5.32;;;6.10;99.90;;;;;;5065096;28;20025;-69
2023/03/07 11:27:33;;;;;;;16.20;5.70;;;6.10;99.90;;;;;;5059711;28;20029;-68
2023/03/07 11:30:11;;;;;;;15.77;5.50;;;6.10;99.90;;;;;;5042189;28;20024;-69
2023/03/07 11:32:42;;;;;;;15.27;4.50;;;6.10;99.90;;;;;;5042433;28;20024;-68
2023/03/07 11:35:19;;;;;;;12.40;6.07;;;6.10;99.90;;;;;;5043188;28;20029;-69
2023/03/07 11:38:11;;;;;;;12.00;5.38;;;6.20;99.90;;;;;;5042100;28;20025;-68
2023/03/07 11:40:50;;;;;;;13.77;5.37;;;6.30;99.90;;;;;;5041840;28;20025;-69
2023/03/07 11:43:43;;;;;;;15.65;5.78;;;6.50;99.90;;;;;;5042505;28;20111;-69
2023/03/07 11:46:26;;;;;;;10.80;4.97;;;6.50;99.90;;;;;;5059535;28;20029;-69
2023/03/07 11:49:15;;;;;;;11.73;5.10;;;6.60;99.90;;;;;;5042602;28;20069;-69
2023/03/07 11:52:06;;;;;;;12.90;5.40;;;6.70;99.90;;;;;;5042097;28;20034;-68
2023/03/07 11:55:01;;;;;;;11.13;4.78;;;6.80;99.90;;;;;;5059252;28;20079;-69
2023/03/07 11:57:57;;;;;;;10.20;4.53;;;6.90;99.90;;;;;;5041790;28;20047;-69
2023/03/07 12:00:33;;;;;;;11.02;5.03;;;6.90;99.90;;;;;;5041832;28;20036;-69
2023/03/07 12:03:37;;;;;;;9.63;4.78;;;6.90;99.90;;;;;;5042107;28;20025;-69
2023/03/07 12:06:33;;;;;;;11.85;5.38;;;7.00;99.90;;;;;;5041318;28;20024;-69
2023/03/07 12:09:06;;;;;;;10.30;4.78;;;7.00;99.90;;;;;;5061490;28;20028;-69
2023/03/07 12:11:51;;;;;;;9.85;4.40;;;7.00;99.90;;;;;;5041499;28;20222;-69
2023/03/07 12:14:50;;;;;;;9.45;4.32;;;7.00;99.90;;;;;;5041408;28;20028;-69
2023/03/07 12:17:38;;;;;;;9.50;4.68;;;7.10;99.90;;;;;;5058908;28;20025;-69
2023/03/07 12:20:13;;;;;;;10.88;4.47;;;7.20;99.90;;;;;;5035152;28;20043;-69
2023/03/07 12:22:45;;;;;;;9.35;4.18;;;7.30;99.90;;;;;;5041282;28;20046;-68
2023/03/07 12:25:37;;;;;;;18.73;4.85;;;7.20;99.90;;;;;;5042003;28;20025;-69
2023/03/07 12:28:14;;;;;;;10.85;5.07;;;7.20;99.90;;;;;;5040728;28;20036;-69
2023/03/07 12:30:52;;;;;;;11.10;5.85;;;7.20;99.90;;;;;;5058700;28;20017;-69
2023/03/07 12:33:44;;;;;;;10.57;4.65;;;7.10;99.90;;;;;;5040982;28;20045;-69
2023/03/07 12:36:17;;;;;;;;;;;7.20;99.90;;;;;;5058995;28;20113;-69
2023/03/07 12:38:53;;;;;;;10.38;3.80;;;7.20;99.90;;;;;;5041246;28;19915;-69
2023/03/07 12:41:34;;;;;;;11.85;5.00;;;7.40;99.90;;;;;;5058512;28;20025;-69
2023/03/07 12:44:07;;;;;;;9.93;4.65;;;7.60;99.90;;;;;;5058421;28;20053;-69
2023/03/07 12:47:02;;;;;;;6.93;3.85;;;7.90;99.90;;;;;;5041267;28;20059;-69
2023/03/07 12:49:55;;;;;;;10.02;4.65;;;8.30;99.90;;;;;;5037019;28;20064;-69
2023/03/07 12:52:38;;;;;;;7.20;4.25;;;8.80;99.90;;;;;;5040942;28;20044;-69
2023/03/07 12:55:40;;;;;;;8.52;3.88;;;9.10;99.90;;;;;;5041372;28;20020;-70
2023/03/07 12:58:37;;;;;;;10.27;4.00;;;9.10;99.90;;;;;;5040508;28;20029;-69